Pagrindinis puslapis
METAR-TAF:

METAR-TAF

Oro uostai :

Al Khardj, Saudo Arabija

platuma: 24-03-19N, ilguma: 047-33-49E, Aukštis: 503 m

Dabartinis oras

Ataskaita buvo paskelbta 56 minutes, ne 23:00 UTC
Vėjas 4 kt iš Šiaurės Vakarų
Temperatūra 23°C
Drėgmė 17%
Slėgis 1018 hPa
Matomumas 10 km arba daugiau
nėra debesų žemiau 1500 m ir nėra kamuolinių lietaus debesų

METAR: OEKJ 192300Z 31004KT CAVOK 23/M03 Q1018

Laikas: 02:56 (23:56 UTC)

Prognozė

Ataskaita buvo paskelbta 56 minutes, ne 23:00 UTC
Prognozė galioja nuo 20 metu 00 UTC su 21 metu 06 UTC
Vėjas 3 kt nuo kintamojo kryptimis
Matomumas 10 km arba daugiau
nėra debesų žemiau 1500 m ir nėra kamuolinių lietaus debesų
Tapsmas
nuo 20 metu 06 UTC su 20 metu 08 UTC
Vėjas 13 kt iš Šiaurės
Matomumas: 7000 m
Laikinai
nuo 20 metu 08 UTC su 20 metu 16 UTC
Matomumas: 4000 m
Dulkes pustymas

TAF: OEKJ 192300Z 2000/2106 VRB03KT CAVOK BECMG 2006/2008 36013KT 7000 NSC TEMPO 2008/2016 4000 BLDU

Orai ataskaitas ir orų prognozės (METAR, TAF).

turimą stotys yra geltonos ir raudonos taškus žemėlapyje.

Perkelti pele per norėdami pamatyti stoties vardą.

Tada spustelėkite, norėdami matyti oro stebėjimo ir prognozės.

Norėdami pakeisti žemėlapį: spustelėkite ant žalios mygtukų su juodo kryžiaus žemyn,; žalią mygtuką su brūkšneliu, jei norite nutolinti; arba žalių rodyklių gretimoms žemėlapius.


METAR-TAF: